sensor_id;sensor_type;location;lat;lon;timestamp;P1;durP1;ratioP1;P2;durP2;ratioP2
39016;SDS011;24784;45.582;5.276;2024-01-15T00:00:43;69.57;;;38.13;;
39016;SDS011;24784;45.582;5.276;2024-01-15T00:03:09;75.78;;;37.95;;
39016;SDS011;24784;45.582;5.276;2024-01-15T00:05:35;72.80;;;37.53;;
39016;SDS011;24784;45.582;5.276;2024-01-15T00:08:01;68.03;;;36.38;;
39016;SDS011;24784;45.582;5.276;2024-01-15T00:10:26;71.10;;;37.67;;
39016;SDS011;24784;45.582;5.276;2024-01-15T00:12:52;83.15;;;40.78;;
39016;SDS011;24784;45.582;5.276;2024-01-15T00:15:18;70.78;;;36.28;;
39016;SDS011;24784;45.582;5.276;2024-01-15T00:17:43;70.32;;;32.92;;
39016;SDS011;24784;45.582;5.276;2024-01-15T00:20:09;68.72;;;34.28;;
39016;SDS011;24784;45.582;5.276;2024-01-15T00:22:35;72.47;;;33.90;;
39016;SDS011;24784;45.582;5.276;2024-01-15T00:25:01;74.38;;;34.80;;
39016;SDS011;24784;45.582;5.276;2024-01-15T00:27:28;65.80;;;35.58;;
39016;SDS011;24784;45.582;5.276;2024-01-15T00:29:53;71.20;;;38.22;;
39016;SDS011;24784;45.582;5.276;2024-01-15T00:32:19;76.30;;;35.90;;
39016;SDS011;24784;45.582;5.276;2024-01-15T00:34:45;76.22;;;37.00;;
39016;SDS011;24784;45.582;5.276;2024-01-15T00:37:11;71.18;;;35.35;;
39016;SDS011;24784;45.582;5.276;2024-01-15T00:39:37;76.50;;;38.28;;
39016;SDS011;24784;45.582;5.276;2024-01-15T00:42:03;77.72;;;40.50;;
39016;SDS011;24784;45.582;5.276;2024-01-15T00:44:29;77.88;;;37.47;;
39016;SDS011;24784;45.582;5.276;2024-01-15T00:46:54;77.63;;;37.80;;
39016;SDS011;24784;45.582;5.276;2024-01-15T00:49:20;76.72;;;38.63;;
39016;SDS011;24784;45.582;5.276;2024-01-15T00:51:45;68.00;;;36.30;;
39016;SDS011;24784;45.582;5.276;2024-01-15T00:54:12;73.82;;;37.38;;
39016;SDS011;24784;45.582;5.276;2024-01-15T00:56:37;71.70;;;35.55;;
39016;SDS011;24784;45.582;5.276;2024-01-15T00:59:03;80.75;;;36.53;;
39016;SDS011;24784;45.582;5.276;2024-01-15T01:01:29;66.25;;;34.20;;
39016;SDS011;24784;45.582;5.276;2024-01-15T01:03:54;69.78;;;35.40;;
39016;SDS011;24784;45.582;5.276;2024-01-15T01:06:20;70.28;;;35.13;;
39016;SDS011;24784;45.582;5.276;2024-01-15T01:08:46;71.32;;;35.17;;
39016;SDS011;24784;45.582;5.276;2024-01-15T01:11:15;71.00;;;35.70;;
39016;SDS011;24784;45.582;5.276;2024-01-15T01:13:41;69.15;;;34.25;;
39016;SDS011;24784;45.582;5.276;2024-01-15T01:16:07;69.43;;;35.03;;
39016;SDS011;24784;45.582;5.276;2024-01-15T01:18:32;71.80;;;36.15;;
39016;SDS011;24784;45.582;5.276;2024-01-15T01:20:58;67.95;;;34.97;;
39016;SDS011;24784;45.582;5.276;2024-01-15T01:23:23;72.13;;;35.75;;
39016;SDS011;24784;45.582;5.276;2024-01-15T01:25:49;69.65;;;34.47;;
39016;SDS011;24784;45.582;5.276;2024-01-15T01:28:15;66.53;;;34.42;;
39016;SDS011;24784;45.582;5.276;2024-01-15T01:30:40;78.95;;;37.28;;
39016;SDS011;24784;45.582;5.276;2024-01-15T01:33:06;68.68;;;34.90;;
39016;SDS011;24784;45.582;5.276;2024-01-15T01:35:31;68.40;;;34.83;;
39016;SDS011;24784;45.582;5.276;2024-01-15T01:37:57;71.50;;;37.28;;
39016;SDS011;24784;45.582;5.276;2024-01-15T01:40:23;72.50;;;36.40;;
39016;SDS011;24784;45.582;5.276;2024-01-15T01:42:48;76.35;;;36.63;;
39016;SDS011;24784;45.582;5.276;2024-01-15T01:45:14;72.20;;;36.85;;
39016;SDS011;24784;45.582;5.276;2024-01-15T01:47:40;70.80;;;34.85;;
39016;SDS011;24784;45.582;5.276;2024-01-15T01:50:06;70.68;;;34.92;;
39016;SDS011;24784;45.582;5.276;2024-01-15T01:52:32;74.03;;;37.78;;
39016;SDS011;24784;45.582;5.276;2024-01-15T01:54:59;74.00;;;36.33;;
39016;SDS011;24784;45.582;5.276;2024-01-15T01:57:27;69.90;;;35.33;;
39016;SDS011;24784;45.582;5.276;2024-01-15T01:59:53;68.80;;;35.10;;
39016;SDS011;24784;45.582;5.276;2024-01-15T02:02:19;73.20;;;34.50;;
39016;SDS011;24784;45.582;5.276;2024-01-15T02:04:46;77.35;;;37.35;;
39016;SDS011;24784;45.582;5.276;2024-01-15T02:07:13;70.45;;;36.10;;
39016;SDS011;24784;45.582;5.276;2024-01-15T02:09:38;68.22;;;35.00;;
39016;SDS011;24784;45.582;5.276;2024-01-15T02:12:04;71.25;;;35.15;;
39016;SDS011;24784;45.582;5.276;2024-01-15T02:14:30;65.10;;;33.78;;
39016;SDS011;24784;45.582;5.276;2024-01-15T02:16:56;59.47;;;31.95;;
39016;SDS011;24784;45.582;5.276;2024-01-15T02:19:22;64.78;;;31.73;;
39016;SDS011;24784;45.582;5.276;2024-01-15T02:21:47;58.15;;;30.67;;
39016;SDS011;24784;45.582;5.276;2024-01-15T02:24:13;61.53;;;30.75;;
39016;SDS011;24784;45.582;5.276;2024-01-15T02:26:39;62.38;;;30.27;;
39016;SDS011;24784;45.582;5.276;2024-01-15T02:29:05;63.53;;;30.92;;
39016;SDS011;24784;45.582;5.276;2024-01-15T02:31:33;64.20;;;31.02;;
39016;SDS011;24784;45.582;5.276;2024-01-15T02:34:00;59.20;;;28.90;;
39016;SDS011;24784;45.582;5.276;2024-01-15T02:36:25;58.38;;;30.33;;
39016;SDS011;24784;45.582;5.276;2024-01-15T02:38:51;64.97;;;31.20;;
39016;SDS011;24784;45.582;5.276;2024-01-15T02:41:16;57.80;;;30.20;;
39016;SDS011;24784;45.582;5.276;2024-01-15T02:43:42;60.78;;;29.98;;
39016;SDS011;24784;45.582;5.276;2024-01-15T02:46:08;61.80;;;30.85;;
39016;SDS011;24784;45.582;5.276;2024-01-15T02:48:33;59.15;;;30.10;;
39016;SDS011;24784;45.582;5.276;2024-01-15T02:51:02;57.40;;;29.48;;
39016;SDS011;24784;45.582;5.276;2024-01-15T02:53:27;61.88;;;30.65;;
39016;SDS011;24784;45.582;5.276;2024-01-15T02:55:53;56.58;;;29.90;;
39016;SDS011;24784;45.582;5.276;2024-01-15T02:58:19;63.78;;;31.65;;
39016;SDS011;24784;45.582;5.276;2024-01-15T03:00:44;56.65;;;30.30;;
39016;SDS011;24784;45.582;5.276;2024-01-15T03:03:11;62.28;;;30.17;;
39016;SDS011;24784;45.582;5.276;2024-01-15T03:05:37;62.08;;;30.02;;
39016;SDS011;24784;45.582;5.276;2024-01-15T03:08:03;64.63;;;30.15;;
39016;SDS011;24784;45.582;5.276;2024-01-15T03:10:28;58.08;;;30.42;;
39016;SDS011;24784;45.582;5.276;2024-01-15T03:12:54;58.17;;;30.15;;
39016;SDS011;24784;45.582;5.276;2024-01-15T03:15:20;58.17;;;29.70;;
39016;SDS011;24784;45.582;5.276;2024-01-15T03:17:45;65.85;;;32.53;;
39016;SDS011;24784;45.582;5.276;2024-01-15T03:20:11;63.25;;;31.50;;
39016;SDS011;24784;45.582;5.276;2024-01-15T03:22:37;60.65;;;30.10;;
39016;SDS011;24784;45.582;5.276;2024-01-15T03:25:03;63.45;;;31.40;;
39016;SDS011;24784;45.582;5.276;2024-01-15T03:27:29;62.92;;;30.60;;
39016;SDS011;24784;45.582;5.276;2024-01-15T03:29:55;64.22;;;31.63;;
39016;SDS011;24784;45.582;5.276;2024-01-15T03:32:20;60.28;;;30.02;;
39016;SDS011;24784;45.582;5.276;2024-01-15T03:34:46;55.88;;;29.40;;
39016;SDS011;24784;45.582;5.276;2024-01-15T03:37:12;56.00;;;29.95;;
39016;SDS011;24784;45.582;5.276;2024-01-15T03:39:38;62.17;;;31.40;;
39016;SDS011;24784;45.582;5.276;2024-01-15T03:42:04;58.35;;;30.48;;
39016;SDS011;24784;45.582;5.276;2024-01-15T03:44:29;59.53;;;31.23;;
39016;SDS011;24784;45.582;5.276;2024-01-15T03:46:55;67.03;;;33.13;;
39016;SDS011;24784;45.582;5.276;2024-01-15T03:49:21;59.83;;;30.88;;
39016;SDS011;24784;45.582;5.276;2024-01-15T03:51:46;58.65;;;30.58;;
39016;SDS011;24784;45.582;5.276;2024-01-15T03:54:12;59.40;;;30.85;;
39016;SDS011;24784;45.582;5.276;2024-01-15T03:56:37;60.72;;;30.38;;
39016;SDS011;24784;45.582;5.276;2024-01-15T03:59:03;58.72;;;30.05;;
39016;SDS011;24784;45.582;5.276;2024-01-15T04:01:29;63.90;;;31.45;;
39016;SDS011;24784;45.582;5.276;2024-01-15T04:03:54;62.60;;;31.33;;
39016;SDS011;24784;45.582;5.276;2024-01-15T04:06:20;69.90;;;33.22;;
39016;SDS011;24784;45.582;5.276;2024-01-15T04:08:46;65.03;;;34.38;;
39016;SDS011;24784;45.582;5.276;2024-01-15T04:11:11;57.88;;;29.98;;
39016;SDS011;24784;45.582;5.276;2024-01-15T04:13:37;63.10;;;32.65;;
39016;SDS011;24784;45.582;5.276;2024-01-15T04:16:03;67.07;;;32.17;;
39016;SDS011;24784;45.582;5.276;2024-01-15T04:18:28;66.63;;;32.90;;
39016;SDS011;24784;45.582;5.276;2024-01-15T04:20:54;65.18;;;34.55;;
39016;SDS011;24784;45.582;5.276;2024-01-15T04:23:20;66.78;;;33.92;;
39016;SDS011;24784;45.582;5.276;2024-01-15T04:25:45;64.78;;;31.55;;
39016;SDS011;24784;45.582;5.276;2024-01-15T04:28:11;64.47;;;33.15;;
39016;SDS011;24784;45.582;5.276;2024-01-15T04:30:37;64.47;;;31.35;;
39016;SDS011;24784;45.582;5.276;2024-01-15T04:33:03;67.28;;;31.50;;
39016;SDS011;24784;45.582;5.276;2024-01-15T04:35:29;61.67;;;31.27;;
39016;SDS011;24784;45.582;5.276;2024-01-15T04:37:55;57.45;;;30.52;;
39016;SDS011;24784;45.582;5.276;2024-01-15T04:40:21;55.80;;;28.90;;
39016;SDS011;24784;45.582;5.276;2024-01-15T04:42:47;57.15;;;30.95;;
39016;SDS011;24784;45.582;5.276;2024-01-15T04:45:12;61.70;;;32.03;;
39016;SDS011;24784;45.582;5.276;2024-01-15T04:47:38;58.17;;;29.70;;
39016;SDS011;24784;45.582;5.276;2024-01-15T04:50:04;66.22;;;32.63;;
39016;SDS011;24784;45.582;5.276;2024-01-15T04:52:30;64.82;;;32.50;;
39016;SDS011;24784;45.582;5.276;2024-01-15T04:54:56;65.28;;;33.25;;
39016;SDS011;24784;45.582;5.276;2024-01-15T04:57:22;70.75;;;33.75;;
39016;SDS011;24784;45.582;5.276;2024-01-15T04:59:47;62.15;;;31.63;;
39016;SDS011;24784;45.582;5.276;2024-01-15T05:02:13;59.85;;;29.90;;
39016;SDS011;24784;45.582;5.276;2024-01-15T05:04:38;71.47;;;33.83;;
39016;SDS011;24784;45.582;5.276;2024-01-15T05:07:04;69.90;;;33.08;;
39016;SDS011;24784;45.582;5.276;2024-01-15T05:09:30;62.95;;;33.25;;
39016;SDS011;24784;45.582;5.276;2024-01-15T05:11:55;60.58;;;33.38;;
39016;SDS011;24784;45.582;5.276;2024-01-15T05:14:21;65.97;;;33.20;;
39016;SDS011;24784;45.582;5.276;2024-01-15T05:16:47;65.20;;;32.85;;
39016;SDS011;24784;45.582;5.276;2024-01-15T05:19:13;60.83;;;32.53;;
39016;SDS011;24784;45.582;5.276;2024-01-15T05:21:39;64.78;;;33.30;;
39016;SDS011;24784;45.582;5.276;2024-01-15T05:24:04;68.43;;;32.83;;
39016;SDS011;24784;45.582;5.276;2024-01-15T05:26:30;64.72;;;32.90;;
39016;SDS011;24784;45.582;5.276;2024-01-15T05:28:56;63.38;;;31.25;;
39016;SDS011;24784;45.582;5.276;2024-01-15T05:31:21;63.78;;;33.17;;
39016;SDS011;24784;45.582;5.276;2024-01-15T05:33:47;62.90;;;32.35;;
39016;SDS011;24784;45.582;5.276;2024-01-15T05:36:13;70.32;;;33.83;;
39016;SDS011;24784;45.582;5.276;2024-01-15T05:38:38;62.70;;;32.40;;
39016;SDS011;24784;45.582;5.276;2024-01-15T05:41:04;70.60;;;34.30;;
39016;SDS011;24784;45.582;5.276;2024-01-15T05:43:30;66.97;;;34.10;;
39016;SDS011;24784;45.582;5.276;2024-01-15T05:45:56;62.47;;;32.05;;
39016;SDS011;24784;45.582;5.276;2024-01-15T05:48:22;70.88;;;34.72;;
39016;SDS011;24784;45.582;5.276;2024-01-15T05:50:47;67.70;;;33.25;;
39016;SDS011;24784;45.582;5.276;2024-01-15T05:53:13;69.85;;;33.35;;
39016;SDS011;24784;45.582;5.276;2024-01-15T05:55:39;61.95;;;32.78;;
39016;SDS011;24784;45.582;5.276;2024-01-15T05:58:05;66.57;;;34.00;;
39016;SDS011;24784;45.582;5.276;2024-01-15T06:00:31;69.35;;;34.47;;
39016;SDS011;24784;45.582;5.276;2024-01-15T06:02:58;67.80;;;35.13;;
39016;SDS011;24784;45.582;5.276;2024-01-15T06:05:24;68.60;;;34.03;;
39016;SDS011;24784;45.582;5.276;2024-01-15T06:07:50;73.85;;;34.85;;
39016;SDS011;24784;45.582;5.276;2024-01-15T06:10:15;69.55;;;34.75;;
39016;SDS011;24784;45.582;5.276;2024-01-15T06:12:42;73.13;;;36.85;;
39016;SDS011;24784;45.582;5.276;2024-01-15T06:15:08;73.90;;;35.45;;
39016;SDS011;24784;45.582;5.276;2024-01-15T06:17:34;73.40;;;37.05;;
39016;SDS011;24784;45.582;5.276;2024-01-15T06:19:59;73.85;;;36.95;;
39016;SDS011;24784;45.582;5.276;2024-01-15T06:22:25;77.10;;;36.60;;
39016;SDS011;24784;45.582;5.276;2024-01-15T06:24:51;70.90;;;36.63;;
39016;SDS011;24784;45.582;5.276;2024-01-15T06:27:16;66.18;;;36.60;;
39016;SDS011;24784;45.582;5.276;2024-01-15T06:29:44;74.90;;;36.03;;
39016;SDS011;24784;45.582;5.276;2024-01-15T06:32:12;70.28;;;34.72;;
39016;SDS011;24784;45.582;5.276;2024-01-15T06:34:38;78.97;;;37.53;;
39016;SDS011;24784;45.582;5.276;2024-01-15T06:37:04;75.05;;;38.53;;
39016;SDS011;24784;45.582;5.276;2024-01-15T06:39:29;78.40;;;37.70;;
39016;SDS011;24784;45.582;5.276;2024-01-15T06:41:55;76.88;;;37.33;;
39016;SDS011;24784;45.582;5.276;2024-01-15T06:44:21;74.68;;;36.85;;
39016;SDS011;24784;45.582;5.276;2024-01-15T06:46:46;73.35;;;37.20;;
39016;SDS011;24784;45.582;5.276;2024-01-15T06:49:12;81.53;;;38.70;;
39016;SDS011;24784;45.582;5.276;2024-01-15T06:51:38;78.55;;;38.28;;
39016;SDS011;24784;45.582;5.276;2024-01-15T06:54:04;80.72;;;37.95;;
39016;SDS011;24784;45.582;5.276;2024-01-15T06:56:30;75.35;;;37.88;;
39016;SDS011;24784;45.582;5.276;2024-01-15T06:58:56;72.78;;;36.35;;
39016;SDS011;24784;45.582;5.276;2024-01-15T07:01:22;85.70;;;39.45;;
39016;SDS011;24784;45.582;5.276;2024-01-15T07:03:47;90.97;;;44.40;;
39016;SDS011;24784;45.582;5.276;2024-01-15T07:06:13;84.90;;;39.78;;
39016;SDS011;24784;45.582;5.276;2024-01-15T07:08:39;80.95;;;41.13;;
39016;SDS011;24784;45.582;5.276;2024-01-15T07:11:06;85.25;;;40.30;;
39016;SDS011;24784;45.582;5.276;2024-01-15T07:13:31;83.97;;;39.03;;
39016;SDS011;24784;45.582;5.276;2024-01-15T07:15:57;87.55;;;40.28;;
39016;SDS011;24784;45.582;5.276;2024-01-15T07:18:23;76.60;;;39.58;;
39016;SDS011;24784;45.582;5.276;2024-01-15T07:20:49;80.45;;;38.35;;
39016;SDS011;24784;45.582;5.276;2024-01-15T07:23:15;79.55;;;40.53;;
39016;SDS011;24784;45.582;5.276;2024-01-15T07:25:42;87.35;;;41.03;;
39016;SDS011;24784;45.582;5.276;2024-01-15T07:28:08;91.40;;;42.97;;
39016;SDS011;24784;45.582;5.276;2024-01-15T07:30:33;85.00;;;42.08;;
39016;SDS011;24784;45.582;5.276;2024-01-15T07:32:59;76.68;;;37.45;;
39016;SDS011;24784;45.582;5.276;2024-01-15T07:35:25;76.90;;;38.72;;
39016;SDS011;24784;45.582;5.276;2024-01-15T07:37:50;78.00;;;39.35;;
39016;SDS011;24784;45.582;5.276;2024-01-15T07:40:16;78.82;;;40.45;;
39016;SDS011;24784;45.582;5.276;2024-01-15T07:42:42;79.38;;;38.10;;
39016;SDS011;24784;45.582;5.276;2024-01-15T07:45:08;77.18;;;37.10;;
39016;SDS011;24784;45.582;5.276;2024-01-15T07:47:36;83.93;;;41.28;;
39016;SDS011;24784;45.582;5.276;2024-01-15T07:50:01;90.18;;;43.85;;
39016;SDS011;24784;45.582;5.276;2024-01-15T07:52:27;83.13;;;42.70;;
39016;SDS011;24784;45.582;5.276;2024-01-15T07:54:53;91.72;;;41.95;;
39016;SDS011;24784;45.582;5.276;2024-01-15T07:57:20;84.57;;;44.60;;
39016;SDS011;24784;45.582;5.276;2024-01-15T07:59:45;85.15;;;43.85;;
39016;SDS011;24784;45.582;5.276;2024-01-15T08:02:11;91.25;;;43.83;;
39016;SDS011;24784;45.582;5.276;2024-01-15T08:04:37;92.00;;;45.80;;
39016;SDS011;24784;45.582;5.276;2024-01-15T08:07:03;87.85;;;42.20;;
39016;SDS011;24784;45.582;5.276;2024-01-15T08:09:31;89.53;;;44.08;;
39016;SDS011;24784;45.582;5.276;2024-01-15T08:11:57;95.80;;;43.38;;
39016;SDS011;24784;45.582;5.276;2024-01-15T08:14:23;86.65;;;42.70;;
39016;SDS011;24784;45.582;5.276;2024-01-15T08:16:49;84.75;;;41.67;;
39016;SDS011;24784;45.582;5.276;2024-01-15T08:19:15;88.43;;;44.05;;
39016;SDS011;24784;45.582;5.276;2024-01-15T08:21:41;96.60;;;43.40;;
39016;SDS011;24784;45.582;5.276;2024-01-15T08:24:07;82.00;;;41.53;;
39016;SDS011;24784;45.582;5.276;2024-01-15T08:26:33;78.60;;;40.40;;
39016;SDS011;24784;45.582;5.276;2024-01-15T08:28:59;81.47;;;38.45;;
39016;SDS011;24784;45.582;5.276;2024-01-15T08:31:25;78.80;;;39.67;;
39016;SDS011;24784;45.582;5.276;2024-01-15T08:33:50;78.47;;;38.65;;
39016;SDS011;24784;45.582;5.276;2024-01-15T08:36:16;75.13;;;39.42;;
39016;SDS011;24784;45.582;5.276;2024-01-15T08:38:43;88.30;;;42.00;;
39016;SDS011;24784;45.582;5.276;2024-01-15T08:41:09;80.63;;;42.25;;
39016;SDS011;24784;45.582;5.276;2024-01-15T08:43:34;83.70;;;40.97;;
39016;SDS011;24784;45.582;5.276;2024-01-15T08:46:00;94.32;;;43.60;;
39016;SDS011;24784;45.582;5.276;2024-01-15T08:48:26;110.55;;;50.22;;
39016;SDS011;24784;45.582;5.276;2024-01-15T08:50:55;109.68;;;56.30;;
39016;SDS011;24784;45.582;5.276;2024-01-15T08:53:21;106.72;;;56.17;;
39016;SDS011;24784;45.582;5.276;2024-01-15T08:55:47;96.55;;;45.97;;
39016;SDS011;24784;45.582;5.276;2024-01-15T08:58:14;97.15;;;46.00;;
39016;SDS011;24784;45.582;5.276;2024-01-15T09:00:39;95.80;;;47.90;;
39016;SDS011;24784;45.582;5.276;2024-01-15T09:03:05;97.63;;;46.42;;
39016;SDS011;24784;45.582;5.276;2024-01-15T09:05:31;87.60;;;45.42;;
39016;SDS011;24784;45.582;5.276;2024-01-15T09:07:57;89.75;;;45.05;;
39016;SDS011;24784;45.582;5.276;2024-01-15T09:10:22;97.70;;;49.17;;
39016;SDS011;24784;45.582;5.276;2024-01-15T09:12:49;87.72;;;44.35;;
39016;SDS011;24784;45.582;5.276;2024-01-15T09:15:14;83.72;;;42.63;;
39016;SDS011;24784;45.582;5.276;2024-01-15T09:17:40;81.97;;;41.80;;
39016;SDS011;24784;45.582;5.276;2024-01-15T09:20:06;83.75;;;40.83;;
39016;SDS011;24784;45.582;5.276;2024-01-15T09:22:33;86.18;;;41.45;;
39016;SDS011;24784;45.582;5.276;2024-01-15T09:24:59;85.20;;;43.33;;
39016;SDS011;24784;45.582;5.276;2024-01-15T09:27:25;87.03;;;41.45;;
39016;SDS011;24784;45.582;5.276;2024-01-15T09:29:54;93.25;;;46.60;;
39016;SDS011;24784;45.582;5.276;2024-01-15T09:32:19;89.57;;;44.42;;
39016;SDS011;24784;45.582;5.276;2024-01-15T09:34:45;84.40;;;42.28;;
39016;SDS011;24784;45.582;5.276;2024-01-15T09:37:11;90.80;;;42.35;;
39016;SDS011;24784;45.582;5.276;2024-01-15T09:39:37;84.93;;;44.83;;
39016;SDS011;24784;45.582;5.276;2024-01-15T09:42:03;82.25;;;42.90;;
39016;SDS011;24784;45.582;5.276;2024-01-15T09:44:29;94.32;;;46.78;;
39016;SDS011;24784;45.582;5.276;2024-01-15T09:46:56;84.07;;;41.33;;
39016;SDS011;24784;45.582;5.276;2024-01-15T09:49:22;81.03;;;42.13;;
39016;SDS011;24784;45.582;5.276;2024-01-15T09:51:48;83.60;;;41.97;;
39016;SDS011;24784;45.582;5.276;2024-01-15T09:54:14;85.35;;;43.67;;
39016;SDS011;24784;45.582;5.276;2024-01-15T09:56:42;94.68;;;42.60;;
39016;SDS011;24784;45.582;5.276;2024-01-15T09:59:16;85.15;;;41.40;;
39016;SDS011;24784;45.582;5.276;2024-01-15T10:01:43;87.18;;;42.35;;
39016;SDS011;24784;45.582;5.276;2024-01-15T10:04:13;79.97;;;40.17;;
39016;SDS011;24784;45.582;5.276;2024-01-15T10:06:39;79.53;;;40.92;;
39016;SDS011;24784;45.582;5.276;2024-01-15T10:09:13;83.43;;;40.28;;
39016;SDS011;24784;45.582;5.276;2024-01-15T10:11:42;87.97;;;41.50;;
39016;SDS011;24784;45.582;5.276;2024-01-15T10:14:11;82.40;;;40.25;;
39016;SDS011;24784;45.582;5.276;2024-01-15T10:16:38;80.30;;;38.13;;
39016;SDS011;24784;45.582;5.276;2024-01-15T10:19:04;80.30;;;40.15;;
39016;SDS011;24784;45.582;5.276;2024-01-15T10:21:31;82.68;;;42.35;;
39016;SDS011;24784;45.582;5.276;2024-01-15T10:23:59;78.65;;;44.38;;
39016;SDS011;24784;45.582;5.276;2024-01-15T10:26:26;79.63;;;40.95;;
39016;SDS011;24784;45.582;5.276;2024-01-15T10:28:52;82.85;;;44.40;;
39016;SDS011;24784;45.582;5.276;2024-01-15T10:31:17;85.15;;;42.03;;
39016;SDS011;24784;45.582;5.276;2024-01-15T10:33:44;79.90;;;41.95;;
39016;SDS011;24784;45.582;5.276;2024-01-15T10:36:10;82.90;;;42.75;;
39016;SDS011;24784;45.582;5.276;2024-01-15T10:38:38;84.35;;;43.67;;
39016;SDS011;24784;45.582;5.276;2024-01-15T10:41:04;80.60;;;44.00;;
39016;SDS011;24784;45.582;5.276;2024-01-15T10:43:30;79.38;;;42.88;;
39016;SDS011;24784;45.582;5.276;2024-01-15T10:45:55;78.18;;;41.70;;
39016;SDS011;24784;45.582;5.276;2024-01-15T10:48:21;87.85;;;44.17;;
39016;SDS011;24784;45.582;5.276;2024-01-15T10:50:47;74.50;;;39.08;;
39016;SDS011;24784;45.582;5.276;2024-01-15T10:53:14;82.35;;;41.95;;
39016;SDS011;24784;45.582;5.276;2024-01-15T10:55:41;70.63;;;38.58;;
39016;SDS011;24784;45.582;5.276;2024-01-15T10:58:08;69.03;;;37.17;;
39016;SDS011;24784;45.582;5.276;2024-01-15T11:00:37;78.47;;;38.90;;
39016;SDS011;24784;45.582;5.276;2024-01-15T11:03:04;73.80;;;38.80;;
39016;SDS011;24784;45.582;5.276;2024-01-15T11:05:37;75.10;;;38.97;;
39016;SDS011;24784;45.582;5.276;2024-01-15T11:08:05;75.63;;;38.10;;
39016;SDS011;24784;45.582;5.276;2024-01-15T11:10:38;73.75;;;38.10;;
39016;SDS011;24784;45.582;5.276;2024-01-15T11:13:13;79.93;;;42.20;;
39016;SDS011;24784;45.582;5.276;2024-01-15T11:18:31;89.28;;;47.42;;
39016;SDS011;24784;45.582;5.276;2024-01-15T11:21:21;108.20;;;50.53;;
39016;SDS011;24784;45.582;5.276;2024-01-15T11:23:50;88.20;;;46.88;;
39016;SDS011;24784;45.582;5.276;2024-01-15T11:26:31;99.18;;;48.97;;
39016;SDS011;24784;45.582;5.276;2024-01-15T11:28:59;96.10;;;47.88;;
39016;SDS011;24784;45.582;5.276;2024-01-15T11:31:30;90.43;;;49.22;;
39016;SDS011;24784;45.582;5.276;2024-01-15T11:34:15;104.20;;;53.08;;
39016;SDS011;24784;45.582;5.276;2024-01-15T11:42:02;104.65;;;52.33;;
39016;SDS011;24784;45.582;5.276;2024-01-15T11:44:29;92.38;;;49.42;;
39016;SDS011;24784;45.582;5.276;2024-01-15T11:52:36;93.65;;;45.78;;
39016;SDS011;24784;45.582;5.276;2024-01-15T11:57:57;93.90;;;45.63;;
39016;SDS011;24784;45.582;5.276;2024-01-15T12:00:25;82.68;;;43.53;;
39016;SDS011;24784;45.582;5.276;2024-01-15T12:02:51;90.47;;;45.00;;
39016;SDS011;24784;45.582;5.276;2024-01-15T12:05:18;88.90;;;44.63;;
39016;SDS011;24784;45.582;5.276;2024-01-15T12:07:46;85.82;;;43.38;;
39016;SDS011;24784;45.582;5.276;2024-01-15T12:10:16;86.05;;;43.90;;
39016;SDS011;24784;45.582;5.276;2024-01-15T12:12:57;82.88;;;42.58;;
39016;SDS011;24784;45.582;5.276;2024-01-15T12:15:24;84.38;;;43.05;;
39016;SDS011;24784;45.582;5.276;2024-01-15T12:17:50;77.18;;;41.20;;
39016;SDS011;24784;45.582;5.276;2024-01-15T12:20:17;79.63;;;39.08;;
39016;SDS011;24784;45.582;5.276;2024-01-15T12:22:43;87.20;;;44.75;;
39016;SDS011;24784;45.582;5.276;2024-01-15T12:25:09;79.97;;;41.40;;
39016;SDS011;24784;45.582;5.276;2024-01-15T12:27:35;75.55;;;40.67;;
39016;SDS011;24784;45.582;5.276;2024-01-15T12:30:02;76.85;;;40.05;;
39016;SDS011;24784;45.582;5.276;2024-01-15T12:32:28;68.72;;;41.05;;
39016;SDS011;24784;45.582;5.276;2024-01-15T12:34:54;78.55;;;42.97;;
39016;SDS011;24784;45.582;5.276;2024-01-15T12:37:34;77.28;;;42.30;;
39016;SDS011;24784;45.582;5.276;2024-01-15T12:40:01;71.00;;;40.60;;
39016;SDS011;24784;45.582;5.276;2024-01-15T12:42:29;75.78;;;42.53;;
39016;SDS011;24784;45.582;5.276;2024-01-15T12:44:58;79.00;;;43.38;;
39016;SDS011;24784;45.582;5.276;2024-01-15T12:47:25;67.97;;;41.00;;
39016;SDS011;24784;45.582;5.276;2024-01-15T12:49:51;73.78;;;39.67;;
39016;SDS011;24784;45.582;5.276;2024-01-15T12:52:20;71.75;;;39.70;;
39016;SDS011;24784;45.582;5.276;2024-01-15T12:54:47;81.50;;;41.83;;
39016;SDS011;24784;45.582;5.276;2024-01-15T12:57:14;72.18;;;39.72;;
39016;SDS011;24784;45.582;5.276;2024-01-15T12:59:40;71.75;;;39.25;;
39016;SDS011;24784;45.582;5.276;2024-01-15T13:02:05;72.25;;;39.10;;
39016;SDS011;24784;45.582;5.276;2024-01-15T13:04:32;75.18;;;39.78;;
39016;SDS011;24784;45.582;5.276;2024-01-15T13:06:57;69.57;;;37.47;;
39016;SDS011;24784;45.582;5.276;2024-01-15T13:09:23;64.18;;;37.33;;
39016;SDS011;24784;45.582;5.276;2024-01-15T13:11:48;65.82;;;37.10;;
39016;SDS011;24784;45.582;5.276;2024-01-15T13:14:14;67.55;;;37.65;;
39016;SDS011;24784;45.582;5.276;2024-01-15T13:16:40;66.88;;;38.22;;
39016;SDS011;24784;45.582;5.276;2024-01-15T13:19:07;68.43;;;38.78;;
39016;SDS011;24784;45.582;5.276;2024-01-15T13:21:34;65.57;;;38.28;;
39016;SDS011;24784;45.582;5.276;2024-01-15T13:23:59;61.08;;;35.75;;
39016;SDS011;24784;45.582;5.276;2024-01-15T13:26:25;61.08;;;35.92;;
39016;SDS011;24784;45.582;5.276;2024-01-15T13:28:50;66.85;;;34.67;;
39016;SDS011;24784;45.582;5.276;2024-01-15T13:31:16;59.53;;;33.72;;
39016;SDS011;24784;45.582;5.276;2024-01-15T13:33:42;62.95;;;33.58;;
39016;SDS011;24784;45.582;5.276;2024-01-15T13:36:07;60.38;;;33.88;;
39016;SDS011;24784;45.582;5.276;2024-01-15T13:38:35;62.92;;;35.85;;
39016;SDS011;24784;45.582;5.276;2024-01-15T13:41:03;63.05;;;34.55;;
39016;SDS011;24784;45.582;5.276;2024-01-15T13:43:32;58.20;;;34.22;;
39016;SDS011;24784;45.582;5.276;2024-01-15T13:45:58;64.68;;;37.17;;
39016;SDS011;24784;45.582;5.276;2024-01-15T13:48:25;74.28;;;44.38;;
39016;SDS011;24784;45.582;5.276;2024-01-15T13:50:51;68.18;;;33.65;;
39016;SDS011;24784;45.582;5.276;2024-01-15T13:53:17;53.70;;;32.03;;
39016;SDS011;24784;45.582;5.276;2024-01-15T13:55:44;57.42;;;31.77;;
39016;SDS011;24784;45.582;5.276;2024-01-15T13:58:09;56.25;;;32.13;;
39016;SDS011;24784;45.582;5.276;2024-01-15T14:00:35;58.88;;;32.60;;
39016;SDS011;24784;45.582;5.276;2024-01-15T14:03:01;57.40;;;31.23;;
39016;SDS011;24784;45.582;5.276;2024-01-15T14:05:28;52.17;;;29.75;;
39016;SDS011;24784;45.582;5.276;2024-01-15T14:07:54;57.88;;;31.35;;
39016;SDS011;24784;45.582;5.276;2024-01-15T14:10:19;52.75;;;31.30;;
39016;SDS011;24784;45.582;5.276;2024-01-15T14:12:45;58.58;;;31.42;;
39016;SDS011;24784;45.582;5.276;2024-01-15T14:15:11;58.55;;;32.92;;
39016;SDS011;24784;45.582;5.276;2024-01-15T14:17:37;57.05;;;34.00;;
39016;SDS011;24784;45.582;5.276;2024-01-15T14:20:03;61.67;;;32.83;;
39016;SDS011;24784;45.582;5.276;2024-01-15T14:22:30;54.22;;;33.00;;
39016;SDS011;24784;45.582;5.276;2024-01-15T14:24:55;53.95;;;31.77;;
39016;SDS011;24784;45.582;5.276;2024-01-15T14:27:21;53.78;;;33.13;;
39016;SDS011;24784;45.582;5.276;2024-01-15T14:29:47;55.55;;;32.58;;
39016;SDS011;24784;45.582;5.276;2024-01-15T14:32:12;64.00;;;33.13;;